General Aviation Weather

Text Reports

Enter one or more of the following location identifiers separated by a space:

Zip Code, Four-Character ICAO or Three-Character IATA airport codes.

METAR - Aviation Routine Weather Report
KGBD - Great Bend, Kansas
Updated at 11:55 PM GMT on April 01, 2015 (6:55 PM CDT):
METAR KGBD 012355Z AUTO 16016G24KT 10SM CLR 28/09 A2952 RMK AO1 10300 20270 403000110 57020
TAF - Terminal Area Forecast
KGBD - Great Bend, Kansas
Updated at 11:55 PM GMT on April 01, 2015 (6:55 PM CDT):
No TAF is currently available for this location.
Decoded:
No decoded TAF is available.
PIREP - Pilot Weather Report
KGBD - Great Bend, Kansas
Updated at 11:55 PM GMT on April 01, 2015 (6:55 PM CDT):
No PIREP is currently available for this location.
AIRMET - Airmens Meteorological Information
KGBD - Great Bend, Kansas
Updated at 11:55 PM GMT on April 01, 2015 (6:55 PM CDT):
No AIRMET is currently available for this location.
SIGMET - Significant Meteorological Information
KGBD - Great Bend, Kansas
Updated at 11:55 PM GMT on April 01, 2015 (6:55 PM CDT):
No SIGMET is currently available for this location.
NOTAM - Notice to Airmen
KGBD - Great Bend, Kansas
Updated at 11:55 PM GMT on April 01, 2015 (6:55 PM CDT):
No NOTAM is currently available for this location.
Forecast Area
KGBD - Great Bend, Kansas
Updated at 11:55 PM GMT on April 01, 2015 (6:55 PM CDT):
No NOTAM is currently available for this location.
Aviation Weather Maps